Time;durP1;ratioP1;P1;durP2;ratioP2;P2;SDS_P1;SDS_P2;PMS_P1;PMS_P2;Temp;Humidity;BMP_temperature;BMP_pressure;BME280_temperature;BME280_humidity;BME280_pressure;Samples;Min_cycle;Max_cycle;Signal;HPM_P1;HPM_P2
2023/10/06 00:02:07;;;;;;;8.30;7.50;;;;;;;15.47;95.27;101325.00;5044266;28;20237;-81
2023/10/06 00:04:38;;;;;;;7.50;6.60;;;;;;;15.41;95.34;101327.81;5046129;28;20201;-81
2023/10/06 00:07:08;;;;;;;7.77;6.97;;;;;;;15.42;95.32;101321.66;5044077;28;20233;-80
2023/10/06 00:09:35;;;;;;;8.07;6.17;;;;;;;15.42;95.24;101319.03;5045128;28;20200;-80
2023/10/06 00:12:03;;;;;;;8.37;6.00;;;;;;;15.27;92.54;101367.59;5044888;28;20234;-81
2023/10/06 00:14:39;;;;;;;7.17;6.43;;;;;;;15.35;93.34;101366.56;5045594;28;20200;-81
2023/10/06 00:17:15;;;;;;;5.83;5.43;;;;;;;15.34;94.68;101343.78;5044455;28;20202;-81
2023/10/06 00:19:42;;;;;;;6.60;5.80;;;;;;;15.31;95.17;101331.56;5046251;28;20206;-80
2023/10/06 00:22:17;;;;;;;6.30;5.70;;;;;;;15.27;94.47;101332.53;5044552;28;20291;-80
2023/10/06 00:24:47;;;;;;;10.53;6.40;;;;;;;15.29;94.35;101338.63;5046229;28;20205;-80
2023/10/06 00:27:14;;;;;;;5.50;4.90;;;;;;;15.29;94.21;101352.63;5044971;28;20236;-80
2023/10/06 00:29:43;;;;;;;7.00;6.03;;;;;;;15.26;93.84;101355.38;5046362;28;20205;-81
2023/10/06 00:35:08;;;;;;;6.77;4.90;;;;;;;15.20;93.06;101368.66;5038628;28;20220;-79
2023/10/06 00:37:36;;;;;;;5.73;5.17;;;;;;;15.14;92.41;101379.28;5045539;28;20295;-81
2023/10/06 00:40:10;;;;;;;5.23;4.80;;;;;;;15.18;91.77;101398.50;5044436;28;20209;-81
2023/10/06 00:42:37;;;;;;;5.67;4.93;;;;;;;15.09;92.10;101395.19;5044999;28;20213;-80
2023/10/06 00:45:07;;;;;;;6.67;5.00;;;;;;;15.06;92.28;101395.28;5045040;28;20207;-78
2023/10/06 00:47:38;;;;;;;6.27;5.00;;;;;;;15.04;91.65;101402.34;5045588;28;20244;-81
2023/10/06 00:50:06;;;;;;;8.20;5.17;;;;;;;15.04;91.42;101407.59;5036325;28;20217;-80
2023/10/06 00:52:33;;;;;;;4.90;4.40;;;;;;;15.02;91.12;101412.00;5045674;28;20216;-80
2023/10/06 00:55:02;;;;;;;6.10;4.40;;;;;;;14.96;91.29;101413.91;5045293;28;20204;-81
2023/10/06 00:57:30;;;;;;;6.80;4.97;;;;;;;14.90;91.09;101407.00;5042967;28;20205;-79
2023/10/06 00:59:57;;;;;;;6.20;4.90;;;;;;;14.89;91.40;101393.00;5044820;28;20206;-80
2023/10/06 01:02:24;;;;;;;5.60;5.00;;;;;;;14.86;91.30;101386.94;5045247;28;20207;-79
2023/10/06 01:04:52;;;;;;;5.17;4.70;;;;;;;14.73;90.75;101381.09;5043386;28;20208;-81
2023/10/06 01:07:19;;;;;;;6.00;4.70;;;;;;;14.80;90.65;101384.44;5045885;28;20235;-80
2023/10/06 01:09:56;;;;;;;4.63;4.10;;;;;;;14.80;91.10;101379.19;5043153;28;20204;-81
2023/10/06 01:12:23;;;;;;;7.33;4.40;;;;;;;14.78;91.62;101383.59;5045963;28;20212;-80
2023/10/06 01:14:52;;;;;;;5.37;4.87;;;;;;;14.80;91.32;101382.66;5042526;28;20273;-79
2023/10/06 01:17:19;;;;;;;5.53;4.77;;;;;;;14.75;91.89;101370.56;5043936;28;20209;-80
2023/10/06 01:19:49;;;;;;;5.93;4.70;;;;;;;14.71;92.17;101369.75;5044994;28;20270;-80
2023/10/06 01:22:24;;;;;;;5.30;4.70;;;;;;;14.72;92.14;101366.19;5043949;28;20223;-80
2023/10/06 01:24:52;;;;;;;5.33;4.83;;;;;;;14.69;91.95;101375.03;5043541;28;20276;-80
2023/10/06 01:27:26;;;;;;;4.93;4.43;;;;;;;14.72;91.38;101370.59;5026281;28;20264;-80
2023/10/06 01:30:08;;;;;;;7.30;4.90;;;;;;;14.74;90.29;101387.19;5042810;28;20218;-79
2023/10/06 01:32:35;;;;;;;5.47;5.07;;;;;;;14.70;90.38;101384.63;5044206;28;20276;-80
2023/10/06 01:35:02;;;;;;;6.10;4.53;;;;;;;14.70;90.05;101395.13;5042296;28;20206;-81
2023/10/06 01:37:30;;;;;;;6.13;5.00;;;;;;;14.69;89.94;101400.44;5043854;28;20223;-80
2023/10/06 01:39:57;;;;;;;6.10;4.90;;;;;;;14.71;90.51;101401.28;5043224;28;20206;-81
2023/10/06 01:42:24;;;;;;;8.53;5.17;;;;;;;14.64;90.48;101387.38;5043444;28;20226;-80
2023/10/06 01:44:50;;;;;;;5.83;5.17;;;;;;;14.62;90.91;101381.28;5044959;28;20205;-80
2023/10/06 01:47:18;;;;;;;6.00;5.60;;;;;;;14.56;91.48;101365.66;5043999;28;20208;-80
2023/10/06 01:49:44;;;;;;;5.37;4.67;;;;;;;14.56;91.98;101347.25;5044296;28;20205;-80
2023/10/06 01:52:19;;;;;;;6.03;4.67;;;;;;;14.56;91.87;101344.63;5044278;28;20222;-78
2023/10/06 01:54:47;;;;;;;9.20;5.30;;;;;;;14.47;91.78;101336.94;5043529;28;20193;-80
2023/10/06 01:57:15;;;;;;;9.80;5.70;;;;;;;14.43;92.22;101343.13;5044986;28;20215;-81
2023/10/06 01:59:43;;;;;;;5.87;5.30;;;;;;;14.43;92.76;101328.25;5044313;28;20218;-80
2023/10/06 02:02:12;;;;;;;7.93;5.20;;;;;;;14.46;92.90;101320.28;5044027;28;20305;-80
2023/10/06 02:04:44;;;;;;;7.00;5.33;;;;;;;14.41;92.81;101319.53;5042395;28;20198;-81
2023/10/06 02:07:13;;;;;;;5.80;5.40;;;;;;;14.41;92.71;101322.16;5044622;28;20233;-81
2023/10/06 02:09:40;;;;;;;4.90;4.47;;;;;;;14.27;91.56;101330.31;5044907;28;20208;-80
2023/10/06 02:12:09;;;;;;;7.73;5.90;;;;;;;14.34;92.31;101336.31;5048091;28;20240;-80
2023/10/06 02:14:35;;;;;;;6.83;5.17;;;;;;;14.41;92.56;101316.91;5046721;28;20201;-80
2023/10/06 02:17:05;;;;;;;6.70;5.10;;;;;;;14.37;92.43;101319.59;5047150;28;20293;-80
2023/10/06 02:19:34;;;;;;;7.10;6.00;;;;;;;14.38;92.07;101319.59;5045515;28;20271;-80
2023/10/06 02:22:00;;;;;;;7.63;5.47;;;;;;;14.42;92.20;101330.91;5047032;28;20461;-81
2023/10/06 02:24:27;;;;;;;7.37;5.43;;;;;;;14.39;92.43;101325.69;5046231;28;20206;-80
2023/10/06 02:27:00;;;;;;;11.43;5.90;;;;;;;14.32;92.67;101317.09;5045719;28;20213;-81
2023/10/06 02:29:28;;;;;;;6.53;5.30;;;;;;;14.36;92.71;101313.50;5046099;28;20209;-80
2023/10/06 02:32:00;;;;;;;7.93;5.90;;;;;;;14.38;92.12;101316.97;5046781;28;20243;-81
2023/10/06 02:34:29;;;;;;;5.87;5.20;;;;;;;14.36;92.72;101310.00;5044124;28;20210;-81
2023/10/06 02:36:55;;;;;;;6.53;5.87;;;;;;;14.27;92.62;101298.81;5047917;28;20205;-79
2023/10/06 02:39:26;;;;;;;7.53;5.90;;;;;;;14.30;92.51;101303.13;5046722;28;20209;-81
2023/10/06 02:41:57;;;;;;;8.43;5.80;;;;;;;14.29;92.72;101302.25;5046388;28;20289;-80
2023/10/06 02:44:24;;;;;;;7.47;5.47;;;;;;;14.29;93.04;101290.88;5045261;28;20423;-79
2023/10/06 02:46:52;;;;;;;7.20;5.07;;;;;;;14.28;92.48;101297.03;5046691;28;20209;-81
2023/10/06 02:49:24;;;;;;;5.87;5.33;;;;;;;14.27;92.30;101295.28;5047568;28;20232;-78
2023/10/06 02:51:54;;;;;;;8.23;6.00;;;;;;;14.25;92.23;101295.34;5031864;28;20231;-80
2023/10/06 02:54:22;;;;;;;6.00;5.27;;;;;;;14.25;92.05;101299.72;5027470;28;20209;-78
2023/10/06 02:56:50;;;;;;;5.73;5.10;;;;;;;14.19;92.59;101300.72;5027147;28;20224;-78
2023/10/06 02:59:21;;;;;;;5.40;4.70;;;;;;;14.18;92.93;101292.88;5026734;28;20204;-81
2023/10/06 03:01:57;;;;;;;6.47;4.63;;;;;;;14.14;93.28;101285.94;5027166;28;20222;-82
2023/10/06 03:04:26;;;;;;;5.37;4.87;;;;;;;14.13;92.90;101286.84;5029426;28;20221;-81
2023/10/06 03:06:55;;;;;;;6.73;4.70;;;;;;;14.08;93.25;101292.19;5027349;28;20202;-80
2023/10/06 03:09:27;;;;;;;5.50;4.47;;;;;;;14.07;93.14;101280.81;5028139;28;20292;-80
2023/10/06 03:11:58;;;;;;;6.80;5.63;;;;;;;14.07;92.79;101287.81;5013518;28;20287;-77
2023/10/06 03:14:37;;;;;;;4.97;4.57;;;;;;;14.04;93.27;101273.00;5032746;28;20241;-78
2023/10/06 03:17:06;;;;;;;5.90;5.30;;;;;;;13.94;93.47;101278.47;5053986;28;20239;-80
2023/10/06 03:19:33;;;;;;;6.87;5.70;;;;;;;13.97;93.44;101281.03;5044897;28;20480;-79
2023/10/06 03:22:01;;;;;;;5.53;4.50;;;;;;;14.00;93.51;101271.34;5047545;28;20229;-80
2023/10/06 03:24:32;;;;;;;9.57;5.30;;;;;;;13.95;93.53;101277.56;5050068;28;20273;-80
2023/10/06 03:26:59;;;;;;;7.53;4.93;;;;;;;13.96;92.49;101290.66;5047930;28;20538;-80
2023/10/06 03:29:40;;;;;;;6.27;4.47;;;;;;;14.00;91.96;101296.72;5067389;28;20236;-79
2023/10/06 03:32:12;;;;;;;5.77;4.20;;;;;;;13.98;91.90;101306.41;5033698;28;20316;-80
2023/10/06 03:34:43;;;;;;;6.07;4.37;;;;;;;13.95;91.09;101309.91;5030590;28;20202;-80
2023/10/06 03:37:15;;;;;;;6.00;4.10;;;;;;;13.97;91.04;101317.78;5028680;28;20233;-80
2023/10/06 03:39:50;;;;;;;4.90;3.83;;;;;;;13.94;91.36;101325.72;5027404;28;20209;-81
2023/10/06 03:42:20;;;;;;;4.70;4.20;;;;;;;13.92;91.58;101306.50;5025929;28;20217;-80
2023/10/06 03:44:52;;;;;;;6.67;3.93;;;;;;;13.88;91.46;101313.56;5026492;28;20233;-80
2023/10/06 03:47:20;;;;;;;4.17;3.73;;;;;;;13.87;91.63;101309.19;5024666;28;20204;-80
2023/10/06 03:49:47;;;;;;;4.67;3.87;;;;;;;13.82;91.70;101306.66;5050974;28;20706;-80
2023/10/06 03:52:15;;;;;;;5.83;3.50;;;;;;;13.69;92.04;101307.78;5060588;28;20266;-79
2023/10/06 03:54:42;;;;;;;6.23;4.27;;;;;;;13.72;93.06;101299.88;5065377;28;20670;-80
2023/10/06 03:57:11;;;;;;;5.37;3.87;;;;;;;13.80;92.36;101295.34;5029539;28;20222;-79
2023/10/06 03:59:39;;;;;;;4.53;3.43;;;;;;;13.82;92.33;101288.31;5025108;28;20209;-79
2023/10/06 04:02:05;;;;;;;6.80;4.07;;;;;;;13.80;91.72;101304.97;5024429;28;20228;-80
2023/10/06 04:04:39;;;;;;;6.40;3.50;;;;;;;13.80;92.18;101286.59;5024686;28;20703;-80
2023/10/06 04:07:06;;;;;;;5.70;3.67;;;;;;;13.78;91.94;101278.75;5024449;28;20213;-79
2023/10/06 04:09:33;;;;;;;4.20;3.30;;;;;;;13.79;91.67;101290.97;5026076;28;20229;-78
2023/10/06 04:12:01;;;;;;;7.90;3.37;;;;;;;13.80;91.53;101299.72;5025389;28;20244;-81
2023/10/06 04:14:31;;;;;;;3.97;3.50;;;;;;;13.73;91.46;101314.69;5025889;28;20215;-80
2023/10/06 04:17:01;;;;;;;3.43;3.13;;;;;;;13.76;90.88;101334.78;5025344;28;20213;-79
2023/10/06 04:19:29;;;;;;;7.53;3.83;;;;;;;13.78;92.17;101315.50;5038792;28;20205;-80
2023/10/06 04:21:57;;;;;;;5.63;3.50;;;;;;;13.78;91.70;101320.75;5042926;28;20233;-81
2023/10/06 04:24:23;;;;;;;4.43;3.10;;;;;;;13.78;92.27;101305.00;5043598;28;20211;-80
2023/10/06 04:26:50;;;;;;;8.23;3.83;;;;;;;13.74;92.62;101297.22;5045012;28;20205;-80
2023/10/06 04:29:16;;;;;;;5.33;3.40;;;;;;;13.80;92.07;101297.09;5043638;28;20738;-79
2023/10/06 04:31:43;;;;;;;5.53;2.97;;;;;;;13.80;91.32;101313.72;5045232;28;20220;-77
2023/10/06 04:34:12;;;;;;;5.53;2.90;;;;;;;13.76;92.25;101313.81;5044450;28;20208;-80
2023/10/06 04:36:38;;;;;;;5.93;3.53;;;;;;;13.71;92.87;101300.75;5042960;28;20201;-80
2023/10/06 04:39:09;;;;;;;4.60;2.87;;;;;;;13.75;92.78;101277.94;5044049;28;20688;-79
2023/10/06 04:41:36;;;;;;;5.10;3.30;;;;;;;13.73;93.38;101264.84;5044043;28;20228;-80
2023/10/06 04:44:03;;;;;;;9.83;3.10;;;;;;;13.70;93.57;101251.81;5043753;28;20241;-80
2023/10/06 04:46:29;;;;;;;8.00;3.47;;;;;;;13.76;92.35;101251.69;5044963;28;20205;-80
2023/10/06 04:48:55;;;;;;;4.50;3.23;;;;;;;13.75;92.40;101267.44;5045064;28;20237;-79
2023/10/06 04:51:22;;;;;;;4.10;3.40;;;;;;;13.74;92.08;101263.09;5043619;28;20232;-80
2023/10/06 04:53:48;;;;;;;3.93;3.00;;;;;;;13.75;92.29;101265.69;5043737;28;20214;-79
2023/10/06 04:56:17;;;;;;;4.93;2.87;;;;;;;13.77;92.97;101263.03;5044953;28;20207;-79
2023/10/06 04:58:43;;;;;;;7.60;3.23;;;;;;;13.81;92.14;101267.31;5043377;28;20204;-79
2023/10/06 05:01:11;;;;;;;8.23;3.50;;;;;;;13.81;91.87;101270.81;5044524;28;20220;-81
2023/10/06 05:03:44;;;;;;;4.57;3.50;;;;;;;13.78;91.81;101264.78;5042853;28;20209;-80
2023/10/06 05:06:13;;;;;;;3.40;2.93;;;;;;;13.77;91.86;101261.28;5043893;28;20224;-80
2023/10/06 05:08:39;;;;;;;5.63;2.70;;;;;;;13.79;91.30;101258.63;5041527;28;20231;-79
2023/10/06 05:11:06;;;;;;;2.80;2.57;;;;;;;13.81;90.93;101259.47;5044418;28;20228;-81
2023/10/06 05:13:34;;;;;;;3.77;2.60;;;;;;;13.73;91.51;101250.88;5042464;28;20207;-80
2023/10/06 05:16:01;;;;;;;6.53;3.10;;;;;;;13.69;91.43;101244.81;5043978;28;20686;-78
2023/10/06 05:18:29;;;;;;;4.20;3.43;;;;;;;13.64;91.33;101251.91;5036692;28;20205;-84
2023/10/06 05:20:55;;;;;;;4.13;3.07;;;;;;;13.70;91.02;101259.69;5038859;28;20237;-82
2023/10/06 05:23:22;;;;;;;4.40;3.20;;;;;;;13.70;90.71;101262.28;5039627;28;20217;-82
2023/10/06 05:25:48;;;;;;;3.53;2.93;;;;;;;13.70;92.75;101241.31;5040107;28;20703;-83
2023/10/06 05:28:17;;;;;;;4.07;3.50;;;;;;;13.69;92.12;101234.31;5039608;28;20304;-84
2023/10/06 05:30:45;;;;;;;5.70;2.80;;;;;;;13.79;91.06;101241.09;5039680;28;20236;-83
2023/10/06 05:33:14;;;;;;;4.37;3.00;;;;;;;13.84;90.45;101260.28;5040133;28;20210;-83
2023/10/06 05:35:40;;;;;;;7.10;3.13;;;;;;;13.83;90.66;101279.53;5039607;28;20779;-84
2023/10/06 05:38:08;;;;;;;4.53;3.20;;;;;;;13.84;90.65;101289.13;5039288;28;20681;-85
2023/10/06 05:40:34;;;;;;;4.70;2.80;;;;;;;13.90;90.73;101293.41;5040628;28;20226;-84
2023/10/06 05:43:01;;;;;;;6.93;2.77;;;;;;;13.75;90.51;101305.03;5040369;28;20208;-85
2023/10/06 05:45:29;;;;;;;7.00;3.53;;;;;;;13.76;91.35;101298.91;5040660;28;20216;-85
2023/10/06 05:47:58;;;;;;;2.80;2.60;;;;;;;13.75;90.08;101307.66;5041071;28;20242;-81
2023/10/06 05:50:29;;;;;;;5.80;2.87;;;;;;;13.88;90.85;101301.31;5041453;28;20802;-84
2023/10/06 05:52:58;;;;;;;6.97;3.60;;;;;;;13.98;91.59;101290.63;5042517;28;20694;-85
2023/10/06 05:55:30;;;;;;;6.93;3.27;;;;;;;13.91;90.73;101297.75;5042063;28;20207;-86
2023/10/06 05:57:56;;;;;;;3.80;2.90;;;;;;;13.91;90.27;101313.50;5037804;28;20205;-86
2023/10/06 06:00:27;;;;;;;4.90;2.90;;;;;;;14.01;90.05;101322.06;5038248;28;20231;-85
2023/10/06 06:02:54;;;;;;;10.13;3.10;;;;;;;14.01;89.93;101336.09;5041783;28;20211;-85
2023/10/06 06:05:22;;;;;;;4.97;3.00;;;;;;;14.00;89.99;101333.47;5041930;28;20324;-84
2023/10/06 06:07:51;;;;;;;4.07;3.00;;;;;;;14.01;90.14;101322.06;5041190;28;20239;-85
2023/10/06 06:10:18;;;;;;;3.60;2.80;;;;;;;13.97;89.56;101309.91;5040431;28;20228;-85
2023/10/06 06:12:44;;;;;;;6.20;3.43;;;;;;;14.12;89.59;101308.75;5037923;28;20215;-82
2023/10/06 06:15:11;;;;;;;4.20;2.97;;;;;;;14.02;89.18;101306.28;5041286;28;20292;-86
2023/10/06 06:17:40;;;;;;;7.33;3.10;;;;;;;14.12;88.77;101309.59;5038472;28;20213;-84
2023/10/06 06:20:08;;;;;;;3.57;2.90;;;;;;;14.16;89.73;101294.66;5040187;28;20272;-85
2023/10/06 06:22:37;;;;;;;4.83;2.70;;;;;;;14.16;89.78;101297.28;5060774;28;20326;-83
2023/10/06 06:25:06;;;;;;;3.50;2.67;;;;;;;14.22;89.39;101305.91;5060052;28;20219;-85
2023/10/06 06:27:32;;;;;;;3.63;2.93;;;;;;;14.25;90.23;101304.97;5061898;28;20214;-86
2023/10/06 06:29:59;;;;;;;3.30;2.73;;;;;;;14.24;89.66;101316.38;5059314;28;20223;-85
2023/10/06 06:32:26;;;;;;;4.63;2.97;;;;;;;14.27;90.02;101297.91;5062896;28;20239;-85
2023/10/06 06:34:53;;;;;;;3.37;2.80;;;;;;;14.35;90.22;101297.75;5061356;28;20204;-84
2023/10/06 06:37:20;;;;;;;7.50;2.80;;;;;;;14.25;89.70;101307.59;5062155;28;20200;-84
2023/10/06 06:39:55;;;;;;;4.53;3.20;;;;;;;14.09;90.37;101299.16;5061222;28;20219;-84
2023/10/06 06:42:21;;;;;;;5.20;3.03;;;;;;;14.22;89.73;101300.66;5061206;28;20227;-87
2023/10/06 06:45:00;;;;;;;;;;;;;;;;;;;;;
2023/10/06 06:53:26;;;;;;;3.50;2.87;;;;;;;14.41;90.27;101281.88;5012794;22;20259;-85
2023/10/06 06:55:55;;;;;;;4.53;2.57;;;;;;;14.47;90.28;101280.00;4983224;28;20946;-85
2023/10/06 06:58:21;;;;;;;8.03;2.90;;;;;;;14.37;90.69;101277.59;4986067;28;20709;-85
2023/10/06 07:00:48;;;;;;;3.53;3.10;;;;;;;14.46;89.90;101280.88;4999994;28;20223;-83
2023/10/06 07:03:15;;;;;;;4.83;3.10;;;;;;;14.50;88.87;101284.31;5000678;28;20223;-83
2023/10/06 07:05:42;;;;;;;3.50;2.83;;;;;;;14.52;89.17;101298.28;4992672;28;20218;-86
2023/10/06 07:08:09;;;;;;;3.97;2.40;;;;;;;14.39;88.26;101307.31;4990824;28;20207;-83
2023/10/06 07:10:38;;;;;;;6.13;2.90;;;;;;;14.43;88.17;101312.47;4984381;28;20239;-82
2023/10/06 07:13:06;;;;;;;4.73;2.50;;;;;;;14.44;88.41;101319.44;4981158;28;20679;-84
2023/10/06 07:15:33;;;;;;;4.87;2.57;;;;;;;14.43;88.92;101296.72;4984132;28;20218;-85
2023/10/06 07:18:00;;;;;;;5.27;2.87;;;;;;;14.41;88.53;101302.88;4985125;28;20286;-85
2023/10/06 07:20:28;;;;;;;5.43;2.90;;;;;;;14.44;88.03;101313.34;4985211;28;20230;-85
2023/10/06 07:22:55;;;;;;;5.33;2.80;;;;;;;14.43;88.72;101308.97;4985594;28;20258;-85
2023/10/06 07:25:24;;;;;;;4.53;2.53;;;;;;;14.48;88.82;101307.97;4987140;28;20210;-86
2023/10/06 07:27:52;;;;;;;5.67;2.63;;;;;;;14.54;88.53;101312.25;4984196;28;20207;-86
2023/10/06 07:30:22;;;;;;;3.83;2.43;;;;;;;14.46;88.31;101311.53;4986506;28;20675;-84
2023/10/06 07:35:55;;;;;;;4.13;2.50;;;;;;;14.59;88.50;101306.91;4941840;29;20585;-85
2023/10/06 07:38:24;;;;;;;4.17;2.70;;;;;;;14.60;86.96;101334.94;4941300;29;20219;-85
2023/10/06 07:40:50;;;;;;;7.47;3.03;;;;;;;14.65;87.42;101340.97;4948912;29;20233;-85
2023/10/06 07:43:17;;;;;;;5.03;2.93;;;;;;;14.73;87.13;101340.78;4946920;29;20236;-84
2023/10/06 07:45:48;;;;;;;5.00;3.00;;;;;;;14.69;88.72;101314.59;4981913;28;20212;-84
2023/10/06 07:48:14;;;;;;;5.00;3.00;;;;;;;14.81;87.64;101299.44;4985822;28;20210;-84
2023/10/06 07:50:41;;;;;;;5.13;2.97;;;;;;;14.80;87.06;101316.09;4983594;28;20231;-84
2023/10/06 07:53:07;;;;;;;4.17;2.33;;;;;;;14.96;87.26;101316.63;4986447;28;20223;-84
2023/10/06 07:55:34;;;;;;;3.40;2.60;;;;;;;14.97;86.47;101328.88;4981257;28;20215;-84
2023/10/06 07:58:03;;;;;;;3.83;2.50;;;;;;;15.12;85.13;101357.44;4978515;28;20716;-84
2023/10/06 08:00:30;;;;;;;4.60;2.37;;;;;;;15.07;86.40;101344.41;4978831;28;20234;-84
2023/10/06 08:02:59;;;;;;;4.47;2.90;;;;;;;15.09;85.87;101344.38;4979390;28;20210;-83
2023/10/06 08:05:38;;;;;;;6.17;3.07;;;;;;;15.11;85.42;101346.97;4981558;28;20223;-84
2023/10/06 08:08:04;;;;;;;3.60;2.50;;;;;;;15.14;85.54;101344.25;4961011;28;20294;-84
2023/10/06 08:10:31;;;;;;;3.20;2.27;;;;;;;15.14;84.53;101337.22;4980791;28;20234;-83
2023/10/06 08:13:00;;;;;;;5.90;3.00;;;;;;;15.13;84.60;101366.19;4979964;28;20985;-81
2023/10/06 08:15:27;;;;;;;2.87;2.40;;;;;;;15.23;84.18;101367.72;4982817;28;20231;-84
2023/10/06 08:17:55;;;;;;;4.13;2.27;;;;;;;15.41;84.42;101371.69;4986716;28;20209;-84
2023/10/06 08:20:24;;;;;;;6.13;2.90;;;;;;;15.52;84.02;101366.13;4985366;28;20223;-83
2023/10/06 08:22:54;;;;;;;6.03;2.87;;;;;;;15.50;83.31;101382.00;4982714;28;20218;-84
2023/10/06 08:28:45;;;;;;;4.57;2.87;;;;;;;15.63;82.79;101383.38;4918554;29;20218;-83
2023/10/06 08:31:15;;;;;;;5.23;2.60;;;;;;;15.66;83.17;101372.81;4921478;28;20236;-82
2023/10/06 08:33:41;;;;;;;5.80;2.43;;;;;;;15.69;82.98;101374.47;4978350;28;20224;-83
2023/10/06 08:36:10;;;;;;;3.40;2.63;;;;;;;15.60;81.13;101396.66;4976909;28;20677;-85
2023/10/06 08:38:37;;;;;;;4.50;2.43;;;;;;;15.74;82.91;101379.66;4979101;28;20772;-83
2023/10/06 08:41:04;;;;;;;4.83;2.53;;;;;;;15.81;81.98;101374.19;4979848;28;20231;-83
2023/10/06 08:43:32;;;;;;;6.97;2.97;;;;;;;15.84;80.67;101404.88;4986047;28;20209;-84
2023/10/06 08:46:00;;;;;;;4.10;2.50;;;;;;;15.95;81.87;101400.19;4981763;28;20215;-85
2023/10/06 08:48:35;;;;;;;6.07;2.67;;;;;;;15.92;79.85;101413.44;4989081;28;20246;-82
2023/10/06 08:51:07;;;;;;;3.30;2.23;;;;;;;16.02;80.39;101419.34;4981109;28;20274;-83
2023/10/06 08:53:38;;;;;;;3.30;2.67;;;;;;;16.10;79.28;101446.34;4988502;28;20226;-85
2023/10/06 08:56:07;;;;;;;4.43;2.23;;;;;;;16.05;78.14;101479.81;4988265;28;20206;-87
2023/10/06 08:58:40;;;;;;;5.47;2.40;;;;;;;16.22;80.38;101448.66;4979763;28;20677;-86
2023/10/06 09:01:12;;;;;;;3.67;2.70;;;;;;;16.26;78.92;101457.34;4989746;28;20370;-83
2023/10/06 09:03:39;;;;;;;5.83;3.10;;;;;;;16.29;78.34;101467.78;4983907;28;20196;-84
2023/10/06 09:06:11;;;;;;;4.23;2.60;;;;;;;16.09;77.09;101481.47;4980416;28;20224;-85
2023/10/06 09:08:46;;;;;;;4.00;2.47;;;;;;;16.18;77.32;101489.16;4984636;28;20677;-84
2023/10/06 09:11:38;;;;;;;3.60;2.00;;;;;;;16.22;78.31;101498.69;4981670;28;20231;-85
2023/10/06 09:14:43;;;;;;;4.90;2.30;;;;;;;16.19;77.69;101480.31;4982659;28;20215;-84
2023/10/06 09:17:11;;;;;;;5.90;2.57;;;;;;;16.25;78.72;101461.75;4987775;28;20209;-84
2023/10/06 09:19:47;;;;;;;3.80;2.53;;;;;;;16.33;78.46;101450.97;4984545;28;20207;-85
2023/10/06 09:22:15;;;;;;;5.30;2.47;;;;;;;16.26;76.95;101476.63;4979392;28;20257;-85
2023/10/06 09:24:55;;;;;;;2.20;2.00;;;;;;;16.32;76.90;101478.25;4978719;28;20261;-85
2023/10/06 09:27:25;;;;;;;6.00;3.37;;;;;;;16.15;77.09;101475.19;4982720;28;20236;-84
2023/10/06 09:29:59;;;;;;;3.70;2.17;;;;;;;16.33;77.28;101485.22;4983651;28;20238;-83
2023/10/06 09:32:26;;;;;;;3.33;2.53;;;;;;;16.45;78.51;101462.97;4983732;28;20213;-83
2023/10/06 09:34:53;;;;;;;4.37;2.43;;;;;;;16.36;76.93;101477.25;4988313;28;20713;-85
2023/10/06 09:37:21;;;;;;;7.53;2.47;;;;;;;16.56;76.86;101503.09;4989442;28;20209;-86
2023/10/06 09:39:58;;;;;;;4.80;2.30;;;;;;;16.56;77.20;101518.03;4990411;28;20207;-86
2023/10/06 09:42:28;;;;;;;3.33;2.50;;;;;;;16.58;77.25;101490.72;4988917;28;20215;-86
2023/10/06 09:45:06;;;;;;;4.07;2.07;;;;;;;16.75;76.11;101524.56;4984312;28;20210;-87
2023/10/06 09:47:36;;;;;;;4.90;2.40;;;;;;;16.69;75.72;101545.81;4980430;28;20221;-83
2023/10/06 09:50:03;;;;;;;3.67;2.20;;;;;;;16.74;76.31;101514.03;4980184;28;20231;-83
2023/10/06 09:52:33;;;;;;;3.80;2.10;;;;;;;16.85;75.68;101519.94;4981040;28;20234;-84
2023/10/06 09:55:04;;;;;;;4.20;2.10;;;;;;;16.79;73.90;101554.34;4980436;28;20215;-84
2023/10/06 09:57:32;;;;;;;3.83;2.43;;;;;;;16.91;75.06;101558.44;4980960;28;20218;-84
2023/10/06 10:00:01;;;;;;;3.10;2.10;;;;;;;16.92;75.59;101541.72;4992289;28;20209;-84
2023/10/06 10:02:30;;;;;;;2.93;2.63;;;;;;;17.05;75.63;101527.28;4981916;28;20245;-84
2023/10/06 10:04:59;;;;;;;4.17;2.57;;;;;;;16.85;73.75;101563.00;4988563;28;20214;-83
2023/10/06 10:07:28;;;;;;;2.83;1.87;;;;;;;16.96;74.36;101569.72;4984775;28;20221;-84
2023/10/06 10:09:55;;;;;;;4.57;2.10;;;;;;;17.05;75.44;101543.13;4982460;28;20221;-84
2023/10/06 10:12:35;;;;;;;3.60;2.30;;;;;;;17.04;74.14;101573.03;4983643;28;20210;-84
2023/10/06 10:15:16;;;;;;;3.97;2.43;;;;;;;17.10;74.69;101564.94;4982287;28;20215;-84
2023/10/06 10:17:51;;;;;;;3.00;2.33;;;;;;;17.21;74.61;101559.38;4980964;28;20282;-85
2023/10/06 10:20:17;;;;;;;3.50;2.20;;;;;;;17.24;73.95;101567.19;4981748;28;20225;-84
2023/10/06 10:22:44;;;;;;;5.27;2.17;;;;;;;17.29;73.61;101570.56;4981044;28;20202;-84
2023/10/06 10:25:13;;;;;;;3.23;1.83;;;;;;;17.24;72.81;101591.81;4982507;28;20206;-83
2023/10/06 10:27:41;;;;;;;4.33;2.27;;;;;;;17.34;73.03;101604.72;4985365;28;20262;-82
2023/10/06 10:30:14;;;;;;;4.23;2.23;;;;;;;17.54;73.00;101588.31;4987026;28;20722;-83
2023/10/06 10:32:43;;;;;;;4.03;2.07;;;;;;;17.58;71.64;101619.88;4990191;28;20659;-83
2023/10/06 10:35:14;;;;;;;2.47;2.00;;;;;;;17.72;72.26;101605.38;4990012;28;20203;-84
2023/10/06 10:37:58;;;;;;;3.77;1.93;;;;;;;17.76;71.60;101620.22;4989836;28;20216;-84
2023/10/06 10:40:26;;;;;;;2.00;1.80;;;;;;;17.77;70.95;101643.97;4987978;28;20224;-84
2023/10/06 10:43:03;;;;;;;5.40;2.40;;;;;;;17.81;71.61;101619.19;4988880;28;20259;-83
2023/10/06 10:45:34;;;;;;;3.83;2.40;;;;;;;17.72;70.90;101616.84;4990290;28;20211;-84
2023/10/06 10:48:04;;;;;;;4.17;2.53;;;;;;;17.80;70.63;101617.47;4989969;28;20307;-84
2023/10/06 10:50:59;;;;;;;4.97;2.20;;;;;;;17.49;68.95;101659.75;4989733;28;20303;-85
2023/10/06 10:53:29;;;;;;;2.73;1.90;;;;;;;17.77;70.40;101648.38;4988806;28;20307;-84
2023/10/06 10:55:57;;;;;;;2.70;1.70;;;;;;;17.86;71.65;101629.66;4989414;28;20212;-84
2023/10/06 10:58:55;;;;;;;3.47;1.83;;;;;;;17.81;69.70;101652.66;4988108;28;20226;-83
2023/10/06 11:01:23;;;;;;;2.83;1.80;;;;;;;17.75;69.49;101666.06;4989643;28;20239;-82
2023/10/06 11:04:18;;;;;;;4.60;2.10;;;;;;;17.96;70.41;101644.31;4990335;28;20223;-83
2023/10/06 11:06:46;;;;;;;3.43;1.67;;;;;;;17.93;68.99;101662.88;4990420;28;20243;-83
2023/10/06 11:09:25;;;;;;;3.97;1.90;;;;;;;18.11;70.00;101621.81;4990592;28;20211;-83
2023/10/06 11:11:55;;;;;;;3.60;1.80;;;;;;;18.04;69.47;101646.72;4997172;28;20944;-83
2023/10/06 11:14:25;;;;;;;2.53;1.80;;;;;;;18.18;69.67;101623.38;4997688;28;20229;-82
2023/10/06 11:16:52;;;;;;;2.53;1.60;;;;;;;18.16;68.73;101656.91;4999363;28;20768;-81
2023/10/06 11:19:20;;;;;;;6.17;2.17;;;;;;;18.16;69.06;101646.34;4996067;28;20208;-83
2023/10/06 11:21:47;;;;;;;2.53;2.03;;;;;;;18.19;69.58;101626.88;4998628;28;20215;-81
2023/10/06 11:24:25;;;;;;;2.50;2.30;;;;;;;18.10;69.60;101617.47;4999342;28;20189;-83
2023/10/06 11:26:52;;;;;;;2.20;1.80;;;;;;;18.11;69.13;101639.47;4988193;28;20685;-83
2023/10/06 11:29:29;;;;;;;5.67;2.00;;;;;;;18.20;69.86;101621.53;4986824;28;20204;-82
2023/10/06 11:31:58;;;;;;;2.17;1.80;;;;;;;18.25;69.15;101630.19;4988482;28;20232;-81
2023/10/06 11:34:25;;;;;;;6.03;2.00;;;;;;;18.29;69.79;101606.28;4987733;28;20590;-83
2023/10/06 11:36:54;;;;;;;1.87;1.63;;;;;;;18.35;68.53;101599.03;4987168;28;20204;-83
2023/10/06 11:39:23;;;;;;;2.13;1.80;;;;;;;18.35;67.93;101622.81;4987962;28;20213;-82
2023/10/06 11:41:50;;;;;;;2.60;1.70;;;;;;;18.26;67.61;101639.00;4986609;28;20421;-82
2023/10/06 11:44:17;;;;;;;3.40;1.83;;;;;;;18.43;67.79;101638.44;4986678;28;20211;-83
2023/10/06 11:46:50;;;;;;;3.63;2.40;;;;;;;18.60;68.68;101628.16;4987347;28;20208;-83
2023/10/06 11:49:19;;;;;;;3.73;2.00;;;;;;;18.64;68.18;101640.38;4978932;28;20210;-83
2023/10/06 11:51:46;;;;;;;4.13;1.90;;;;;;;18.64;66.20;101664.19;4980798;28;20687;-85
2023/10/06 11:54:12;;;;;;;3.30;1.83;;;;;;;18.75;66.03;101652.38;4980962;28;20224;-86